Time;durP1;ratioP1;P1;durP2;ratioP2;P2;SDS_P1;SDS_P2;PMS_P1;PMS_P2;Temp;Humidity;BMP_temperature;BMP_pressure;BME280_temperature;BME280_humidity;BME280_pressure;Samples;Min_cycle;Max_cycle;Signal;HPM_P1;HPM_P2
2023/02/10 00:00:49;;;;;;;;;54.50;47.75;;;;;;;;6488442;46;8990;-60
2023/02/10 00:06:51;;;;;;;;;57.50;48.00;;;;;;;;6487851;39;8983;-60
2023/02/10 00:12:55;;;;;;;;;54.67;45.00;;;;;;;;6534401;36;9268;-64
2023/02/10 00:18:57;;;;;;;;;68.50;50.25;;;;;;;;6488431;39;8918;-61
2023/02/10 00:25:02;;;;;;;;;63.50;55.00;;;;;;;;6487318;39;8901;-62
2023/02/10 00:31:09;;;;;;;;;76.00;60.25;;;;;;;;6488304;39;9629;-60
2023/02/10 00:37:12;;;;;;;;;79.25;62.75;;;;;;;;6487532;39;8914;-60
2023/02/10 00:43:14;;;;;;;;;79.75;61.00;;;;;;;;6488775;39;9457;-60
2023/02/10 00:49:20;;;;;;;;;76.00;58.00;;;;;;;;6487358;47;8961;-60
2023/02/10 00:55:22;;;;;;;;;79.75;61.00;;;;;;;;6487013;31;8992;-62
2023/02/10 01:01:24;;;;;;;;;74.50;60.50;;;;;;;;6486922;39;9025;-61
2023/02/10 01:07:28;;;;;;;;;72.50;55.00;;;;;;;;6488195;39;8871;-60
2023/02/10 01:13:33;;;;;;;;;70.25;58.25;;;;;;;;6488615;46;8930;-62
2023/02/10 01:19:36;;;;;;;;;65.75;53.00;;;;;;;;6489567;39;9479;-60
2023/02/10 01:25:40;;;;;;;;;68.75;53.75;;;;;;;;6489362;31;8964;-60
2023/02/10 01:31:44;;;;;;;;;62.00;51.25;;;;;;;;6489674;46;8960;-61
2023/02/10 01:37:46;;;;;;;;;30.75;21.00;;;;;;;;6489171;39;8890;-60
2023/02/10 01:44:05;;;;;;;;;51.00;44.75;;;;;;;;6490812;39;8938;-60
2023/02/10 01:50:07;;;;;;;;;61.25;47.00;;;;;;;;6489402;46;8945;-60
2023/02/10 01:56:12;;;;;;;;;62.00;48.25;;;;;;;;6489116;39;8875;-59
2023/02/10 02:02:17;;;;;;;;;47.00;41.25;;;;;;;;6490677;31;8914;-62
2023/02/10 02:08:23;;;;;;;;;44.50;36.00;;;;;;;;6489965;31;8863;-60
2023/02/10 02:14:33;;;;;;;;;41.75;39.75;;;;;;;;6489902;31;8902;-62
2023/02/10 02:21:13;;;;;;;;;57.25;44.75;;;;;;;;6488255;46;8884;-61
2023/02/10 02:27:39;;;;;;;;;45.25;39.25;;;;;;;;6488490;46;8922;-60
2023/02/10 02:33:54;;;;;;;;;42.75;41.00;;;;;;;;6489319;39;8974;-61
2023/02/10 02:39:57;;;;;;;;;40.25;33.50;;;;;;;;6489304;46;8863;-61
2023/02/10 02:46:37;;;;;;;;;48.75;39.75;;;;;;;;6487906;46;8922;-61
2023/02/10 02:52:51;;;;;;;;;42.67;39.00;;;;;;;;6488277;39;8902;-60
2023/02/10 02:59:01;;;;;;;;;52.00;43.50;;;;;;;;6489535;31;8832;-63
2023/02/10 03:05:04;;;;;;;;;51.50;42.75;;;;;;;;6488440;46;8906;-61
2023/02/10 03:11:07;;;;;;;;;41.25;39.25;;;;;;;;6488974;39;8962;-60
2023/02/10 03:17:10;;;;;;;;;44.00;40.50;;;;;;;;6489429;39;8862;-60
2023/02/10 03:23:13;;;;;;;;;39.75;30.75;;;;;;;;6489375;39;8876;-59
2023/02/10 03:29:16;;;;;;;;;44.50;36.75;;;;;;;;6488803;39;8908;-61
2023/02/10 03:35:19;;;;;;;;;39.00;35.00;;;;;;;;6489240;39;8876;-60
2023/02/10 03:41:21;;;;;;;;;36.75;34.25;;;;;;;;6487966;46;8859;-61
2023/02/10 03:47:26;;;;;;;;;48.00;41.00;;;;;;;;6488279;46;8868;-61
2023/02/10 03:53:33;;;;;;;;;48.50;44.00;;;;;;;;6487846;31;9127;-63
2023/02/10 03:59:36;;;;;;;;;46.75;40.00;;;;;;;;6487980;31;8956;-61
2023/02/10 04:05:38;;;;;;;;;45.00;40.25;;;;;;;;6487850;46;9077;-61
2023/02/10 04:11:40;;;;;;;;;49.25;39.25;;;;;;;;6488179;39;8919;-62
2023/02/10 04:17:44;;;;;;;;;49.00;39.50;;;;;;;;6488849;31;8937;-60
2023/02/10 04:23:46;;;;;;;;;44.00;40.75;;;;;;;;6488379;39;9771;-61
2023/02/10 04:29:48;;;;;;;;;41.50;39.50;;;;;;;;6486954;47;9008;-61
2023/02/10 04:35:52;;;;;;;;;60.00;49.00;;;;;;;;6488508;39;8892;-61
2023/02/10 04:41:56;;;;;;;;;63.50;46.25;;;;;;;;6487756;47;8867;-61
2023/02/10 04:48:01;;;;;;;;;60.50;49.00;;;;;;;;6489292;31;8968;-62
2023/02/10 04:54:03;;;;;;;;;59.00;49.00;;;;;;;;6489383;39;8922;-61
2023/02/10 05:00:06;;;;;;;;;64.25;50.00;;;;;;;;6490333;39;9495;-62
2023/02/10 05:06:11;;;;;;;;;57.50;47.50;;;;;;;;6475322;39;8996;-62
2023/02/10 05:12:15;;;;;;;;;67.00;53.00;;;;;;;;6492182;39;8920;-61
2023/02/10 05:18:19;;;;;;;;;59.75;48.00;;;;;;;;6492835;39;8919;-62
2023/02/10 05:24:22;;;;;;;;;57.75;48.25;;;;;;;;6493351;46;8959;-61
2023/02/10 05:30:25;;;;;;;;;62.75;48.00;;;;;;;;6492857;39;8901;-62
2023/02/10 05:36:37;;;;;;;;;53.50;39.75;;;;;;;;6490420;39;8906;-62
2023/02/10 05:42:40;;;;;;;;;50.00;45.00;;;;;;;;6492347;39;9555;-62
2023/02/10 05:48:42;;;;;;;;;66.00;52.00;;;;;;;;6491512;46;8895;-60
2023/02/10 05:54:44;;;;;;;;;66.00;52.00;;;;;;;;6493585;31;8885;-61
2023/02/10 06:00:47;;;;;;;;;69.25;56.25;;;;;;;;6491056;46;9038;-60
2023/02/10 06:06:51;;;;;;;;;63.25;48.25;;;;;;;;6491328;31;8936;-61
2023/02/10 06:12:56;;;;;;;;;68.25;54.50;;;;;;;;6490309;39;8902;-64
2023/02/10 06:19:01;;;;;;;;;79.75;59.00;;;;;;;;6488840;39;9046;-63
2023/02/10 06:25:07;;;;;;;;;71.25;57.25;;;;;;;;6490217;39;8916;-62
2023/02/10 06:31:10;;;;;;;;;74.75;55.75;;;;;;;;6488729;39;8878;-62
2023/02/10 06:37:12;;;;;;;;;60.75;48.25;;;;;;;;6490057;31;9002;-62
2023/02/10 06:43:14;;;;;;;;;74.00;55.25;;;;;;;;6489656;39;8886;-63
2023/02/10 06:49:16;;;;;;;;;68.50;57.25;;;;;;;;6488182;46;8965;-61
2023/02/10 06:55:19;;;;;;;;;66.75;54.50;;;;;;;;6490112;39;8992;-62
2023/02/10 07:01:22;;;;;;;;;76.75;56.75;;;;;;;;6488955;39;9045;-61
2023/02/10 07:07:25;;;;;;;;;73.00;54.25;;;;;;;;6490114;39;8937;-62
2023/02/10 07:13:27;;;;;;;;;65.00;54.50;;;;;;;;6487454;46;8882;-60
2023/02/10 07:19:30;;;;;;;;;74.00;60.00;;;;;;;;6489031;31;8870;-64
2023/02/10 07:25:32;;;;;;;;;75.00;59.50;;;;;;;;6486385;39;8847;-64
2023/02/10 07:31:38;;;;;;;;;77.75;59.75;;;;;;;;6487434;46;8898;-61
2023/02/10 07:37:41;;;;;;;;;33.75;29.25;;;;;;;;6488294;31;8858;-62
2023/02/10 07:43:45;;;;;;;;;66.25;54.00;;;;;;;;6487716;31;8886;-63
2023/02/10 07:49:53;;;;;;;;;71.00;55.25;;;;;;;;6480587;46;8997;-62
2023/02/10 07:56:00;;;;;;;;;70.75;55.50;;;;;;;;6487637;39;8901;-63
2023/02/10 08:02:03;;;;;;;;;55.00;43.50;;;;;;;;6487995;31;9944;-61
2023/02/10 08:08:06;;;;;;;;;82.50;62.00;;;;;;;;6488718;39;9201;-60
2023/02/10 08:14:08;;;;;;;;;69.00;56.33;;;;;;;;6487609;31;9083;-63
2023/02/10 08:20:13;;;;;;;;;80.50;64.00;;;;;;;;6487271;31;8924;-62
2023/02/10 08:26:21;;;;;;;;;80.00;65.50;;;;;;;;6486714;39;8894;-60
2023/02/10 08:32:24;;;;;;;;;73.75;56.25;;;;;;;;6486576;31;9040;-61
